sensor_id;sensor_type;location;lat;lon;timestamp;P1;durP1;ratioP1;P2;durP2;ratioP2
32874;SDS011;40468;42.128;24.750;2023-07-30T00:01:19;14.40;;;6.18;;
32874;SDS011;40468;42.128;24.750;2023-07-30T00:02:50;13.25;;;5.95;;
32874;SDS011;40468;42.128;24.750;2023-07-30T00:04:22;12.82;;;6.43;;
32874;SDS011;40468;42.128;24.750;2023-07-30T00:05:53;19.52;;;7.53;;
32874;SDS011;40468;42.128;24.750;2023-07-30T00:07:26;14.90;;;7.03;;
32874;SDS011;40468;42.128;24.750;2023-07-30T00:08:56;15.35;;;6.75;;
32874;SDS011;40468;42.128;24.750;2023-07-30T00:10:28;24.95;;;14.57;;
32874;SDS011;40468;42.128;24.750;2023-07-30T00:12:00;14.82;;;8.32;;
32874;SDS011;40468;42.128;24.750;2023-07-30T00:13:32;13.27;;;6.50;;
32874;SDS011;40468;42.128;24.750;2023-07-30T00:15:05;13.20;;;6.70;;
32874;SDS011;40468;42.128;24.750;2023-07-30T00:16:36;14.50;;;6.60;;
32874;SDS011;40468;42.128;24.750;2023-07-30T00:18:09;15.10;;;6.10;;
32874;SDS011;40468;42.128;24.750;2023-07-30T00:19:39;12.80;;;5.72;;
32874;SDS011;40468;42.128;24.750;2023-07-30T00:21:11;14.13;;;6.95;;
32874;SDS011;40468;42.128;24.750;2023-07-30T00:22:42;17.75;;;7.28;;
32874;SDS011;40468;42.128;24.750;2023-07-30T00:24:14;15.27;;;6.75;;
32874;SDS011;40468;42.128;24.750;2023-07-30T00:25:44;23.10;;;9.57;;
32874;SDS011;40468;42.128;24.750;2023-07-30T00:27:18;15.07;;;7.28;;
32874;SDS011;40468;42.128;24.750;2023-07-30T00:28:48;14.07;;;6.50;;
32874;SDS011;40468;42.128;24.750;2023-07-30T00:30:20;17.88;;;7.78;;
32874;SDS011;40468;42.128;24.750;2023-07-30T00:31:51;20.10;;;7.40;;
32874;SDS011;40468;42.128;24.750;2023-07-30T00:33:23;12.80;;;6.55;;
32874;SDS011;40468;42.128;24.750;2023-07-30T00:34:54;14.05;;;6.35;;
32874;SDS011;40468;42.128;24.750;2023-07-30T00:36:26;11.88;;;6.20;;
32874;SDS011;40468;42.128;24.750;2023-07-30T00:37:56;13.85;;;6.90;;
32874;SDS011;40468;42.128;24.750;2023-07-30T00:39:28;13.45;;;6.18;;
32874;SDS011;40468;42.128;24.750;2023-07-30T00:40:59;10.57;;;5.40;;
32874;SDS011;40468;42.128;24.750;2023-07-30T00:42:32;13.35;;;5.78;;
32874;SDS011;40468;42.128;24.750;2023-07-30T00:44:03;8.65;;;4.90;;
32874;SDS011;40468;42.128;24.750;2023-07-30T00:45:35;15.07;;;5.28;;
32874;SDS011;40468;42.128;24.750;2023-07-30T00:47:08;8.25;;;4.28;;
32874;SDS011;40468;42.128;24.750;2023-07-30T00:48:40;13.25;;;5.88;;
32874;SDS011;40468;42.128;24.750;2023-07-30T00:50:12;15.77;;;5.55;;
32874;SDS011;40468;42.128;24.750;2023-07-30T00:51:45;8.00;;;4.20;;
32874;SDS011;40468;42.128;24.750;2023-07-30T00:53:17;9.57;;;4.22;;
32874;SDS011;40468;42.128;24.750;2023-07-30T00:54:53;8.00;;;3.83;;
32874;SDS011;40468;42.128;24.750;2023-07-30T00:56:27;6.20;;;3.22;;
32874;SDS011;40468;42.128;24.750;2023-07-30T00:58:00;7.20;;;3.78;;
32874;SDS011;40468;42.128;24.750;2023-07-30T00:59:33;6.13;;;3.53;;
32874;SDS011;40468;42.128;24.750;2023-07-30T01:01:04;7.97;;;4.20;;
32874;SDS011;40468;42.128;24.750;2023-07-30T01:02:36;13.68;;;5.00;;
32874;SDS011;40468;42.128;24.750;2023-07-30T01:04:07;12.70;;;4.63;;
32874;SDS011;40468;42.128;24.750;2023-07-30T01:05:39;19.90;;;5.63;;
32874;SDS011;40468;42.128;24.750;2023-07-30T01:07:09;18.10;;;4.75;;
32874;SDS011;40468;42.128;24.750;2023-07-30T01:08:41;19.95;;;4.40;;
32874;SDS011;40468;42.128;24.750;2023-07-30T01:10:12;10.15;;;3.83;;
32874;SDS011;40468;42.128;24.750;2023-07-30T01:11:44;14.65;;;4.25;;
32874;SDS011;40468;42.128;24.750;2023-07-30T01:13:17;17.23;;;4.80;;
32874;SDS011;40468;42.128;24.750;2023-07-30T01:14:50;8.70;;;3.50;;
32874;SDS011;40468;42.128;24.750;2023-07-30T01:16:21;8.15;;;4.00;;
32874;SDS011;40468;42.128;24.750;2023-07-30T01:17:53;10.20;;;3.95;;
32874;SDS011;40468;42.128;24.750;2023-07-30T01:19:25;18.90;;;4.57;;
32874;SDS011;40468;42.128;24.750;2023-07-30T01:20:58;7.13;;;3.53;;
32874;SDS011;40468;42.128;24.750;2023-07-30T01:22:29;9.48;;;3.53;;
32874;SDS011;40468;42.128;24.750;2023-07-30T01:24:01;10.70;;;3.72;;
32874;SDS011;40468;42.128;24.750;2023-07-30T01:25:33;8.32;;;3.88;;
32874;SDS011;40468;42.128;24.750;2023-07-30T01:27:08;9.93;;;3.72;;
32874;SDS011;40468;42.128;24.750;2023-07-30T01:28:46;8.98;;;3.78;;
32874;SDS011;40468;42.128;24.750;2023-07-30T01:30:21;8.15;;;3.80;;
32874;SDS011;40468;42.128;24.750;2023-07-30T01:31:57;11.98;;;3.72;;
32874;SDS011;40468;42.128;24.750;2023-07-30T01:33:34;5.25;;;2.95;;
32874;SDS011;40468;42.128;24.750;2023-07-30T01:35:06;6.47;;;3.15;;
32874;SDS011;40468;42.128;24.750;2023-07-30T01:36:40;8.93;;;3.50;;
32874;SDS011;40468;42.128;24.750;2023-07-30T01:38:14;12.50;;;3.35;;
32874;SDS011;40468;42.128;24.750;2023-07-30T01:39:45;6.22;;;3.40;;
32874;SDS011;40468;42.128;24.750;2023-07-30T01:41:19;7.57;;;3.80;;
32874;SDS011;40468;42.128;24.750;2023-07-30T01:42:50;8.93;;;3.78;;
32874;SDS011;40468;42.128;24.750;2023-07-30T01:44:22;7.00;;;3.72;;
32874;SDS011;40468;42.128;24.750;2023-07-30T01:45:53;13.07;;;3.40;;
32874;SDS011;40468;42.128;24.750;2023-07-30T01:47:25;6.43;;;3.55;;
32874;SDS011;40468;42.128;24.750;2023-07-30T01:48:55;6.93;;;3.95;;
32874;SDS011;40468;42.128;24.750;2023-07-30T01:50:27;6.05;;;3.00;;
32874;SDS011;40468;42.128;24.750;2023-07-30T01:51:59;6.90;;;3.47;;
32874;SDS011;40468;42.128;24.750;2023-07-30T01:53:31;5.50;;;3.03;;
32874;SDS011;40468;42.128;24.750;2023-07-30T01:55:02;9.18;;;3.60;;
32874;SDS011;40468;42.128;24.750;2023-07-30T01:56:34;7.85;;;3.28;;
32874;SDS011;40468;42.128;24.750;2023-07-30T01:58:05;6.53;;;3.03;;
32874;SDS011;40468;42.128;24.750;2023-07-30T01:59:37;6.93;;;3.17;;
32874;SDS011;40468;42.128;24.750;2023-07-30T02:01:07;5.40;;;3.30;;
32874;SDS011;40468;42.128;24.750;2023-07-30T02:02:40;5.45;;;3.20;;
32874;SDS011;40468;42.128;24.750;2023-07-30T02:04:11;10.50;;;3.60;;
32874;SDS011;40468;42.128;24.750;2023-07-30T02:05:43;10.88;;;3.40;;
32874;SDS011;40468;42.128;24.750;2023-07-30T02:07:15;5.13;;;3.03;;
32874;SDS011;40468;42.128;24.750;2023-07-30T02:08:47;9.50;;;3.50;;
32874;SDS011;40468;42.128;24.750;2023-07-30T02:10:17;6.85;;;2.95;;
32874;SDS011;40468;42.128;24.750;2023-07-30T02:11:49;7.45;;;3.40;;
32874;SDS011;40468;42.128;24.750;2023-07-30T02:13:20;5.30;;;2.97;;
32874;SDS011;40468;42.128;24.750;2023-07-30T02:14:52;5.45;;;3.53;;
32874;SDS011;40468;42.128;24.750;2023-07-30T02:16:23;7.28;;;3.30;;
32874;SDS011;40468;42.128;24.750;2023-07-30T02:17:55;10.05;;;3.45;;
32874;SDS011;40468;42.128;24.750;2023-07-30T02:19:26;10.15;;;3.80;;
32874;SDS011;40468;42.128;24.750;2023-07-30T02:20:57;6.97;;;3.35;;
32874;SDS011;40468;42.128;24.750;2023-07-30T02:22:30;6.28;;;3.17;;
32874;SDS011;40468;42.128;24.750;2023-07-30T02:24:02;6.03;;;3.20;;
32874;SDS011;40468;42.128;24.750;2023-07-30T02:25:33;7.53;;;3.17;;
32874;SDS011;40468;42.128;24.750;2023-07-30T02:27:05;6.60;;;3.33;;
32874;SDS011;40468;42.128;24.750;2023-07-30T02:28:35;8.70;;;3.42;;
32874;SDS011;40468;42.128;24.750;2023-07-30T02:30:07;6.45;;;3.28;;
32874;SDS011;40468;42.128;24.750;2023-07-30T02:31:39;7.85;;;3.53;;
32874;SDS011;40468;42.128;24.750;2023-07-30T02:33:10;6.10;;;3.33;;
32874;SDS011;40468;42.128;24.750;2023-07-30T02:34:41;9.00;;;3.50;;
32874;SDS011;40468;42.128;24.750;2023-07-30T02:36:13;8.80;;;3.17;;
32874;SDS011;40468;42.128;24.750;2023-07-30T02:37:45;7.10;;;3.38;;
32874;SDS011;40468;42.128;24.750;2023-07-30T02:39:17;10.93;;;3.33;;
32874;SDS011;40468;42.128;24.750;2023-07-30T02:40:48;8.00;;;3.00;;
32874;SDS011;40468;42.128;24.750;2023-07-30T02:42:20;16.35;;;3.17;;
32874;SDS011;40468;42.128;24.750;2023-07-30T02:43:50;9.35;;;3.80;;
32874;SDS011;40468;42.128;24.750;2023-07-30T02:45:22;14.07;;;3.88;;
32874;SDS011;40468;42.128;24.750;2023-07-30T02:46:53;10.70;;;3.63;;
32874;SDS011;40468;42.128;24.750;2023-07-30T02:48:25;7.88;;;3.47;;
32874;SDS011;40468;42.128;24.750;2023-07-30T02:49:56;5.05;;;2.70;;
32874;SDS011;40468;42.128;24.750;2023-07-30T02:51:27;9.18;;;3.42;;
32874;SDS011;40468;42.128;24.750;2023-07-30T02:53:01;9.40;;;3.33;;
32874;SDS011;40468;42.128;24.750;2023-07-30T02:54:32;8.13;;;3.50;;
32874;SDS011;40468;42.128;24.750;2023-07-30T02:56:04;7.00;;;3.60;;
32874;SDS011;40468;42.128;24.750;2023-07-30T02:57:35;10.35;;;3.63;;
32874;SDS011;40468;42.128;24.750;2023-07-30T02:59:07;5.75;;;3.20;;
32874;SDS011;40468;42.128;24.750;2023-07-30T03:00:38;6.97;;;2.92;;
32874;SDS011;40468;42.128;24.750;2023-07-30T03:02:09;10.80;;;3.40;;
32874;SDS011;40468;42.128;24.750;2023-07-30T03:03:40;7.07;;;2.85;;
32874;SDS011;40468;42.128;24.750;2023-07-30T03:05:12;8.90;;;3.33;;
32874;SDS011;40468;42.128;24.750;2023-07-30T03:06:43;5.18;;;3.13;;
32874;SDS011;40468;42.128;24.750;2023-07-30T03:08:16;9.90;;;3.25;;
32874;SDS011;40468;42.128;24.750;2023-07-30T03:09:47;9.15;;;3.30;;
32874;SDS011;40468;42.128;24.750;2023-07-30T03:11:19;10.50;;;3.47;;
32874;SDS011;40468;42.128;24.750;2023-07-30T03:12:50;6.72;;;3.40;;
32874;SDS011;40468;42.128;24.750;2023-07-30T03:14:22;8.55;;;3.22;;
32874;SDS011;40468;42.128;24.750;2023-07-30T03:15:53;6.32;;;3.03;;
32874;SDS011;40468;42.128;24.750;2023-07-30T03:17:25;9.30;;;3.70;;
32874;SDS011;40468;42.128;24.750;2023-07-30T03:18:56;4.95;;;2.80;;
32874;SDS011;40468;42.128;24.750;2023-07-30T03:20:27;9.77;;;3.70;;
32874;SDS011;40468;42.128;24.750;2023-07-30T03:21:58;11.73;;;3.55;;
32874;SDS011;40468;42.128;24.750;2023-07-30T03:23:31;9.70;;;3.63;;
32874;SDS011;40468;42.128;24.750;2023-07-30T03:25:02;6.43;;;3.47;;
32874;SDS011;40468;42.128;24.750;2023-07-30T03:26:35;9.98;;;3.30;;
32874;SDS011;40468;42.128;24.750;2023-07-30T03:28:06;14.45;;;3.67;;
32874;SDS011;40468;42.128;24.750;2023-07-30T03:29:38;7.28;;;3.25;;
32874;SDS011;40468;42.128;24.750;2023-07-30T03:31:08;6.18;;;3.50;;
32874;SDS011;40468;42.128;24.750;2023-07-30T03:32:40;8.52;;;3.83;;
32874;SDS011;40468;42.128;24.750;2023-07-30T03:34:11;10.63;;;4.53;;
32874;SDS011;40468;42.128;24.750;2023-07-30T03:35:43;5.88;;;3.25;;
32874;SDS011;40468;42.128;24.750;2023-07-30T03:37:14;5.55;;;3.13;;
32874;SDS011;40468;42.128;24.750;2023-07-30T03:38:47;13.60;;;3.75;;
32874;SDS011;40468;42.128;24.750;2023-07-30T03:40:18;14.93;;;4.18;;
32874;SDS011;40468;42.128;24.750;2023-07-30T03:41:50;10.70;;;3.83;;
32874;SDS011;40468;42.128;24.750;2023-07-30T03:43:21;16.92;;;4.65;;
32874;SDS011;40468;42.128;24.750;2023-07-30T03:44:52;12.95;;;4.45;;
32874;SDS011;40468;42.128;24.750;2023-07-30T03:46:23;13.68;;;3.85;;
32874;SDS011;40468;42.128;24.750;2023-07-30T03:47:55;7.00;;;3.63;;
32874;SDS011;40468;42.128;24.750;2023-07-30T03:49:26;14.93;;;4.03;;
32874;SDS011;40468;42.128;24.750;2023-07-30T03:50:58;16.90;;;4.03;;
32874;SDS011;40468;42.128;24.750;2023-07-30T03:52:28;14.80;;;3.72;;
32874;SDS011;40468;42.128;24.750;2023-07-30T03:54:02;9.73;;;4.03;;
32874;SDS011;40468;42.128;24.750;2023-07-30T03:55:34;14.82;;;4.15;;
32874;SDS011;40468;42.128;24.750;2023-07-30T03:57:04;18.15;;;4.05;;
32874;SDS011;40468;42.128;24.750;2023-07-30T03:58:36;15.93;;;3.78;;
32874;SDS011;40468;42.128;24.750;2023-07-30T04:00:07;19.02;;;5.00;;
32874;SDS011;40468;42.128;24.750;2023-07-30T04:01:39;20.05;;;4.32;;
32874;SDS011;40468;42.128;24.750;2023-07-30T04:03:10;10.05;;;4.05;;
32874;SDS011;40468;42.128;24.750;2023-07-30T04:04:42;14.05;;;4.05;;
32874;SDS011;40468;42.128;24.750;2023-07-30T04:06:14;11.43;;;3.70;;
32874;SDS011;40468;42.128;24.750;2023-07-30T04:07:46;6.00;;;3.22;;
32874;SDS011;40468;42.128;24.750;2023-07-30T04:09:18;5.35;;;3.10;;
32874;SDS011;40468;42.128;24.750;2023-07-30T04:10:50;9.40;;;3.15;;
32874;SDS011;40468;42.128;24.750;2023-07-30T04:12:22;8.35;;;2.85;;
32874;SDS011;40468;42.128;24.750;2023-07-30T04:13:53;8.60;;;3.25;;
32874;SDS011;40468;42.128;24.750;2023-07-30T04:15:24;8.23;;;2.70;;
32874;SDS011;40468;42.128;24.750;2023-07-30T04:16:56;7.15;;;3.20;;
32874;SDS011;40468;42.128;24.750;2023-07-30T04:18:27;4.70;;;2.83;;
32874;SDS011;40468;42.128;24.750;2023-07-30T04:19:59;5.22;;;2.60;;
32874;SDS011;40468;42.128;24.750;2023-07-30T04:21:29;5.10;;;2.53;;
32874;SDS011;40468;42.128;24.750;2023-07-30T04:23:01;10.63;;;2.90;;
32874;SDS011;40468;42.128;24.750;2023-07-30T04:24:34;10.30;;;2.40;;
32874;SDS011;40468;42.128;24.750;2023-07-30T04:26:05;10.95;;;3.22;;
32874;SDS011;40468;42.128;24.750;2023-07-30T04:27:37;5.45;;;2.70;;
32874;SDS011;40468;42.128;24.750;2023-07-30T04:29:08;3.20;;;2.42;;
32874;SDS011;40468;42.128;24.750;2023-07-30T04:30:40;6.47;;;2.90;;
32874;SDS011;40468;42.128;24.750;2023-07-30T04:32:11;4.93;;;2.78;;
32874;SDS011;40468;42.128;24.750;2023-07-30T04:33:43;6.68;;;2.70;;
32874;SDS011;40468;42.128;24.750;2023-07-30T04:35:14;4.20;;;2.65;;
32874;SDS011;40468;42.128;24.750;2023-07-30T04:36:45;7.10;;;2.80;;
32874;SDS011;40468;42.128;24.750;2023-07-30T04:38:16;12.48;;;2.92;;
32874;SDS011;40468;42.128;24.750;2023-07-30T04:39:49;6.68;;;2.60;;
32874;SDS011;40468;42.128;24.750;2023-07-30T04:41:20;7.85;;;3.30;;
32874;SDS011;40468;42.128;24.750;2023-07-30T04:42:52;11.13;;;3.20;;
32874;SDS011;40468;42.128;24.750;2023-07-30T04:44:23;6.72;;;3.60;;
32874;SDS011;40468;42.128;24.750;2023-07-30T04:45:55;7.45;;;2.78;;
32874;SDS011;40468;42.128;24.750;2023-07-30T04:47:26;6.30;;;2.80;;
32874;SDS011;40468;42.128;24.750;2023-07-30T04:48:57;4.22;;;2.47;;
32874;SDS011;40468;42.128;24.750;2023-07-30T04:50:28;7.82;;;3.10;;
32874;SDS011;40468;42.128;24.750;2023-07-30T04:52:00;8.88;;;3.17;;
32874;SDS011;40468;42.128;24.750;2023-07-30T04:53:31;6.18;;;3.15;;
32874;SDS011;40468;42.128;24.750;2023-07-30T04:55:04;7.35;;;3.25;;
32874;SDS011;40468;42.128;24.750;2023-07-30T04:56:36;9.55;;;2.90;;
32874;SDS011;40468;42.128;24.750;2023-07-30T04:58:08;9.80;;;3.40;;
32874;SDS011;40468;42.128;24.750;2023-07-30T04:59:39;6.22;;;3.00;;
32874;SDS011;40468;42.128;24.750;2023-07-30T05:01:11;8.30;;;3.47;;
32874;SDS011;40468;42.128;24.750;2023-07-30T05:02:41;7.97;;;3.00;;
32874;SDS011;40468;42.128;24.750;2023-07-30T05:04:14;6.20;;;2.70;;
32874;SDS011;40468;42.128;24.750;2023-07-30T05:05:44;14.27;;;2.92;;
32874;SDS011;40468;42.128;24.750;2023-07-30T05:07:16;5.90;;;2.70;;
32874;SDS011;40468;42.128;24.750;2023-07-30T05:08:47;7.60;;;2.60;;
32874;SDS011;40468;42.128;24.750;2023-07-30T05:10:20;4.05;;;2.78;;
32874;SDS011;40468;42.128;24.750;2023-07-30T05:11:51;5.80;;;2.50;;
32874;SDS011;40468;42.128;24.750;2023-07-30T05:13:23;8.95;;;3.00;;
32874;SDS011;40468;42.128;24.750;2023-07-30T05:14:54;6.00;;;2.58;;
32874;SDS011;40468;42.128;24.750;2023-07-30T05:16:26;9.48;;;2.60;;
32874;SDS011;40468;42.128;24.750;2023-07-30T05:17:56;3.50;;;2.50;;
32874;SDS011;40468;42.128;24.750;2023-07-30T05:19:28;4.00;;;2.35;;
32874;SDS011;40468;42.128;24.750;2023-07-30T05:20:59;5.75;;;2.55;;
32874;SDS011;40468;42.128;24.750;2023-07-30T05:22:31;6.38;;;2.70;;
32874;SDS011;40468;42.128;24.750;2023-07-30T05:24:02;4.93;;;2.20;;
32874;SDS011;40468;42.128;24.750;2023-07-30T05:25:36;7.10;;;2.85;;
32874;SDS011;40468;42.128;24.750;2023-07-30T05:27:06;10.07;;;2.80;;
32874;SDS011;40468;42.128;24.750;2023-07-30T05:28:38;6.25;;;2.88;;
32874;SDS011;40468;42.128;24.750;2023-07-30T05:30:09;5.18;;;2.60;;
32874;SDS011;40468;42.128;24.750;2023-07-30T05:31:42;8.63;;;2.80;;
32874;SDS011;40468;42.128;24.750;2023-07-30T05:33:12;4.82;;;2.67;;
32874;SDS011;40468;42.128;24.750;2023-07-30T05:34:44;5.72;;;2.50;;
32874;SDS011;40468;42.128;24.750;2023-07-30T05:36:15;7.40;;;2.35;;
32874;SDS011;40468;42.128;24.750;2023-07-30T05:37:47;11.65;;;2.83;;
32874;SDS011;40468;42.128;24.750;2023-07-30T05:39:18;3.10;;;2.40;;
32874;SDS011;40468;42.128;24.750;2023-07-30T05:40:51;7.45;;;2.30;;
32874;SDS011;40468;42.128;24.750;2023-07-30T05:42:23;3.45;;;2.25;;
32874;SDS011;40468;42.128;24.750;2023-07-30T05:43:54;6.30;;;2.92;;
32874;SDS011;40468;42.128;24.750;2023-07-30T05:45:26;6.20;;;2.53;;
32874;SDS011;40468;42.128;24.750;2023-07-30T05:46:57;5.03;;;2.30;;
32874;SDS011;40468;42.128;24.750;2023-07-30T05:48:29;6.30;;;2.45;;
32874;SDS011;40468;42.128;24.750;2023-07-30T05:49:59;9.23;;;2.63;;
32874;SDS011;40468;42.128;24.750;2023-07-30T05:51:33;3.80;;;2.47;;
32874;SDS011;40468;42.128;24.750;2023-07-30T05:53:03;4.95;;;2.40;;
32874;SDS011;40468;42.128;24.750;2023-07-30T05:54:35;6.07;;;2.83;;
32874;SDS011;40468;42.128;24.750;2023-07-30T05:56:07;6.13;;;2.17;;
32874;SDS011;40468;42.128;24.750;2023-07-30T05:57:40;5.00;;;2.40;;
32874;SDS011;40468;42.128;24.750;2023-07-30T05:59:11;5.50;;;2.42;;
32874;SDS011;40468;42.128;24.750;2023-07-30T06:00:44;5.30;;;2.70;;
32874;SDS011;40468;42.128;24.750;2023-07-30T06:02:15;7.95;;;2.65;;
32874;SDS011;40468;42.128;24.750;2023-07-30T06:03:47;9.10;;;3.33;;
32874;SDS011;40468;42.128;24.750;2023-07-30T06:05:19;7.00;;;2.40;;
32874;SDS011;40468;42.128;24.750;2023-07-30T06:06:50;8.02;;;2.42;;
32874;SDS011;40468;42.128;24.750;2023-07-30T06:08:21;10.25;;;2.28;;
32874;SDS011;40468;42.128;24.750;2023-07-30T06:09:53;7.40;;;3.28;;
32874;SDS011;40468;42.128;24.750;2023-07-30T06:11:25;6.25;;;2.90;;
32874;SDS011;40468;42.128;24.750;2023-07-30T06:12:58;7.13;;;2.80;;
32874;SDS011;40468;42.128;24.750;2023-07-30T06:14:29;9.20;;;2.97;;
32874;SDS011;40468;42.128;24.750;2023-07-30T06:16:00;3.40;;;2.47;;
32874;SDS011;40468;42.128;24.750;2023-07-30T06:17:31;6.75;;;3.00;;
32874;SDS011;40468;42.128;24.750;2023-07-30T06:19:03;7.38;;;2.97;;
32874;SDS011;40468;42.128;24.750;2023-07-30T06:20:35;17.65;;;2.97;;
32874;SDS011;40468;42.128;24.750;2023-07-30T06:22:07;6.28;;;2.92;;
32874;SDS011;40468;42.128;24.750;2023-07-30T06:23:38;7.95;;;2.80;;
32874;SDS011;40468;42.128;24.750;2023-07-30T06:25:10;6.10;;;3.58;;
32874;SDS011;40468;42.128;24.750;2023-07-30T06:26:42;6.47;;;2.88;;
32874;SDS011;40468;42.128;24.750;2023-07-30T06:29:44;3.50;;;2.88;;
32874;SDS011;40468;42.128;24.750;2023-07-30T06:31:16;13.57;;;2.92;;
32874;SDS011;40468;42.128;24.750;2023-07-30T06:32:48;4.80;;;2.60;;
32874;SDS011;40468;42.128;24.750;2023-07-30T06:34:20;9.32;;;2.50;;
32874;SDS011;40468;42.128;24.750;2023-07-30T06:35:50;7.55;;;2.72;;
32874;SDS011;40468;42.128;24.750;2023-07-30T06:37:22;9.00;;;2.83;;
32874;SDS011;40468;42.128;24.750;2023-07-30T06:38:53;6.28;;;3.00;;
32874;SDS011;40468;42.128;24.750;2023-07-30T06:40:25;9.80;;;3.00;;
32874;SDS011;40468;42.128;24.750;2023-07-30T06:41:57;5.75;;;3.08;;
32874;SDS011;40468;42.128;24.750;2023-07-30T06:43:29;4.20;;;2.58;;
32874;SDS011;40468;42.128;24.750;2023-07-30T06:45:00;8.13;;;2.22;;
32874;SDS011;40468;42.128;24.750;2023-07-30T06:46:32;6.22;;;2.72;;
32874;SDS011;40468;42.128;24.750;2023-07-30T06:48:03;5.40;;;2.70;;
32874;SDS011;40468;42.128;24.750;2023-07-30T06:49:34;7.13;;;2.30;;
32874;SDS011;40468;42.128;24.750;2023-07-30T06:51:07;2.88;;;1.85;;
32874;SDS011;40468;42.128;24.750;2023-07-30T06:52:39;7.18;;;2.38;;
32874;SDS011;40468;42.128;24.750;2023-07-30T06:54:11;5.72;;;2.15;;
32874;SDS011;40468;42.128;24.750;2023-07-30T06:55:42;8.50;;;2.60;;
32874;SDS011;40468;42.128;24.750;2023-07-30T06:57:16;6.88;;;2.33;;
32874;SDS011;40468;42.128;24.750;2023-07-30T06:58:46;3.33;;;2.05;;
32874;SDS011;40468;42.128;24.750;2023-07-30T07:00:18;8.43;;;2.33;;
32874;SDS011;40468;42.128;24.750;2023-07-30T07:01:51;15.60;;;2.47;;
32874;SDS011;40468;42.128;24.750;2023-07-30T07:03:23;7.40;;;1.95;;
32874;SDS011;40468;42.128;24.750;2023-07-30T07:04:54;5.72;;;2.03;;
32874;SDS011;40468;42.128;24.750;2023-07-30T07:06:26;4.22;;;2.42;;
32874;SDS011;40468;42.128;24.750;2023-07-30T07:07:57;7.07;;;2.15;;
32874;SDS011;40468;42.128;24.750;2023-07-30T07:09:28;12.77;;;2.97;;
32874;SDS011;40468;42.128;24.750;2023-07-30T07:10:59;8.05;;;2.50;;
32874;SDS011;40468;42.128;24.750;2023-07-30T07:12:32;13.35;;;3.42;;
32874;SDS011;40468;42.128;24.750;2023-07-30T07:14:03;4.45;;;2.00;;
32874;SDS011;40468;42.128;24.750;2023-07-30T07:15:35;7.07;;;2.38;;
32874;SDS011;40468;42.128;24.750;2023-07-30T07:17:06;3.03;;;2.08;;
32874;SDS011;40468;42.128;24.750;2023-07-30T07:18:38;7.22;;;3.03;;
32874;SDS011;40468;42.128;24.750;2023-07-30T07:20:08;2.67;;;2.20;;
32874;SDS011;40468;42.128;24.750;2023-07-30T07:21:41;5.68;;;2.58;;
32874;SDS011;40468;42.128;24.750;2023-07-30T07:23:12;5.00;;;2.38;;
32874;SDS011;40468;42.128;24.750;2023-07-30T07:24:44;5.25;;;2.63;;
32874;SDS011;40468;42.128;24.750;2023-07-30T07:26:15;6.82;;;2.72;;
32874;SDS011;40468;42.128;24.750;2023-07-30T07:27:49;3.80;;;2.00;;
32874;SDS011;40468;42.128;24.750;2023-07-30T07:30:51;4.28;;;2.03;;
32874;SDS011;40468;42.128;24.750;2023-07-30T07:32:23;6.07;;;2.45;;
32874;SDS011;40468;42.128;24.750;2023-07-30T07:33:54;5.18;;;2.20;;
32874;SDS011;40468;42.128;24.750;2023-07-30T07:35:25;4.88;;;2.28;;
32874;SDS011;40468;42.128;24.750;2023-07-30T07:36:56;5.32;;;2.28;;
32874;SDS011;40468;42.128;24.750;2023-07-30T07:38:28;6.05;;;2.67;;
32874;SDS011;40468;42.128;24.750;2023-07-30T07:39:59;9.63;;;2.33;;
32874;SDS011;40468;42.128;24.750;2023-07-30T07:41:31;5.32;;;2.28;;
32874;SDS011;40468;42.128;24.750;2023-07-30T07:43:03;3.70;;;2.30;;
32874;SDS011;40468;42.128;24.750;2023-07-30T07:46:05;5.90;;;2.55;;
32874;SDS011;40468;42.128;24.750;2023-07-30T07:47:43;6.60;;;2.50;;
32874;SDS011;40468;42.128;24.750;2023-07-30T07:49:15;5.82;;;2.25;;
32874;SDS011;40468;42.128;24.750;2023-07-30T07:50:45;3.65;;;2.47;;
32874;SDS011;40468;42.128;24.750;2023-07-30T07:52:17;4.93;;;2.72;;
32874;SDS011;40468;42.128;24.750;2023-07-30T07:53:49;4.65;;;2.50;;
32874;SDS011;40468;42.128;24.750;2023-07-30T07:55:21;4.88;;;2.40;;
32874;SDS011;40468;42.128;24.750;2023-07-30T07:56:53;6.50;;;2.20;;
32874;SDS011;40468;42.128;24.750;2023-07-30T07:58:26;6.28;;;2.20;;
32874;SDS011;40468;42.128;24.750;2023-07-30T07:59:58;5.70;;;2.22;;
32874;SDS011;40468;42.128;24.750;2023-07-30T08:01:30;4.97;;;2.10;;
32874;SDS011;40468;42.128;24.750;2023-07-30T08:03:02;5.50;;;2.30;;
32874;SDS011;40468;42.128;24.750;2023-07-30T08:04:34;5.10;;;1.95;;
32874;SDS011;40468;42.128;24.750;2023-07-30T08:06:05;5.18;;;2.42;;
32874;SDS011;40468;42.128;24.750;2023-07-30T08:07:37;4.93;;;2.05;;
32874;SDS011;40468;42.128;24.750;2023-07-30T08:09:08;6.60;;;2.60;;
32874;SDS011;40468;42.128;24.750;2023-07-30T08:10:40;6.93;;;2.60;;
32874;SDS011;40468;42.128;24.750;2023-07-30T08:12:13;6.55;;;2.65;;
32874;SDS011;40468;42.128;24.750;2023-07-30T08:13:46;6.30;;;2.33;;
32874;SDS011;40468;42.128;24.750;2023-07-30T08:15:17;4.60;;;2.53;;
32874;SDS011;40468;42.128;24.750;2023-07-30T08:16:49;7.78;;;2.17;;
32874;SDS011;40468;42.128;24.750;2023-07-30T08:18:20;5.13;;;2.50;;
32874;SDS011;40468;42.128;24.750;2023-07-30T08:19:52;6.57;;;2.38;;
32874;SDS011;40468;42.128;24.750;2023-07-30T08:21:23;7.55;;;2.35;;
32874;SDS011;40468;42.128;24.750;2023-07-30T08:22:54;5.57;;;2.22;;
32874;SDS011;40468;42.128;24.750;2023-07-30T08:24:25;7.30;;;2.58;;
32874;SDS011;40468;42.128;24.750;2023-07-30T08:25:57;5.55;;;2.22;;
32874;SDS011;40468;42.128;24.750;2023-07-30T08:27:28;5.20;;;2.38;;
32874;SDS011;40468;42.128;24.750;2023-07-30T08:29:01;2.67;;;2.20;;
32874;SDS011;40468;42.128;24.750;2023-07-30T08:30:32;2.53;;;1.93;;
32874;SDS011;40468;42.128;24.750;2023-07-30T08:32:04;6.72;;;2.42;;
32874;SDS011;40468;42.128;24.750;2023-07-30T08:33:36;4.68;;;2.60;;
32874;SDS011;40468;42.128;24.750;2023-07-30T08:35:08;4.10;;;2.15;;
32874;SDS011;40468;42.128;24.750;2023-07-30T08:36:40;5.55;;;2.25;;
32874;SDS011;40468;42.128;24.750;2023-07-30T08:38:11;4.68;;;2.65;;
32874;SDS011;40468;42.128;24.750;2023-07-30T08:39:42;5.72;;;2.45;;
32874;SDS011;40468;42.128;24.750;2023-07-30T08:41:14;4.63;;;2.83;;
32874;SDS011;40468;42.128;24.750;2023-07-30T08:42:45;6.32;;;2.58;;
32874;SDS011;40468;42.128;24.750;2023-07-30T08:44:19;4.88;;;2.58;;
32874;SDS011;40468;42.128;24.750;2023-07-30T08:45:50;5.18;;;2.42;;
32874;SDS011;40468;42.128;24.750;2023-07-30T08:47:22;5.30;;;2.42;;
32874;SDS011;40468;42.128;24.750;2023-07-30T08:48:52;4.40;;;2.20;;
32874;SDS011;40468;42.128;24.750;2023-07-30T08:50:27;5.95;;;2.13;;
32874;SDS011;40468;42.128;24.750;2023-07-30T08:51:58;3.25;;;2.10;;
32874;SDS011;40468;42.128;24.750;2023-07-30T08:53:33;3.63;;;2.13;;
32874;SDS011;40468;42.128;24.750;2023-07-30T08:55:05;4.18;;;2.30;;
32874;SDS011;40468;42.128;24.750;2023-07-30T08:56:37;5.63;;;2.33;;
32874;SDS011;40468;42.128;24.750;2023-07-30T08:58:08;4.28;;;2.25;;
32874;SDS011;40468;42.128;24.750;2023-07-30T08:59:45;3.85;;;1.95;;
32874;SDS011;40468;42.128;24.750;2023-07-30T09:01:23;5.55;;;2.20;;
32874;SDS011;40468;42.128;24.750;2023-07-30T09:03:00;5.05;;;2.22;;
32874;SDS011;40468;42.128;24.750;2023-07-30T09:04:34;5.05;;;2.60;;
32874;SDS011;40468;42.128;24.750;2023-07-30T09:06:09;5.57;;;2.15;;
32874;SDS011;40468;42.128;24.750;2023-07-30T09:07:39;3.38;;;2.28;;